KMAO

Marion County Airport

Marion, South Carolina, USA
METAR KMAO 232015Z AUTO 26005KT 10SM CLR 21/11 A3012 RMK AO2
Observed Flight Rules
Oct-23 @ 20:15 UTC (23 minutes ago) Visual Flight Rules
Wind Visibility Clouds
260° at 5 knots 10 miles
  • Clear skies
Temperatures Readings
Current 21°C / 70°F
Dewpoint 11°C / 52°F
Humidity 53%
Altimeter 30.12" Hg
Pressure 1020 hPa
Elevation 28
METAR KMAO 232015Z AUTO 26005KT 10SM CLR 21/11 A3012 RMK AO2
Observed Flight Rules
Oct-23 @ 20:15 UTC
(23 minutes ago)
VFR
Wind Visibility
260° at 5 knots 10 miles
Clouds
  • Clear skies
Temperature Dewpoint
21°C / 70°F 11°C / 52°F
Humidity Altimeter Pressure
53% 30.12" Hg 1020 hPa